Flight Track Log - Related Links

Times and Time Zones

All times are in EDT time to prevent confusion due to time zone crossing. See the AM217 flight status page for this flight to view local times or setup timezone preferences in your user account.

Time Position Orientation Groundspeed Altitude Reporting Facility
EDT Latitude Longitude Course Direction KTS MPH feet Rate Location/Type
Sat 11:24:31 PM -37.7486 144.9061 157° South 142 163 1,000  Level Aus ATC (RADAR)
Sat 11:25:11 PM -37.7756 144.9206 155° Southeast 159 183 2,300 1,740 Climbing Aus ATC (RADAR)
Sat 11:26:11 PM -37.8194 144.9465 88° East 177 204 3,900 1,700 Climbing Aus ATC (RADAR)
Sat 11:27:11 PM -37.8184 144.9931 27° Northeast 184 212 5,700 1,740 Climbing Aus ATC (RADAR)
Sat 11:27:51 PM -37.7889 145.0121 27° Northeast 181 208 6,800 1,600 Climbing Aus ATC (RADAR)
Sat 11:28:26 PM -37.7617 145.0294 25° Northeast 189 217 7,700 1,629 Climbing Aus ATC (RADAR)
Sat 11:29:01 PM -37.7337 145.0457 26° Northeast 190 219 8,700 1,629 Climbing Aus ATC (RADAR)
Sat 11:29:36 PM -37.7059 145.0630 26° Northeast 192 221 9,600 1,739 Climbing Aus ATC (RADAR)
Sat 11:30:10 PM -37.6777 145.0805 26° Northeast 195 224 10,700 1,673 Climbing Aus ATC (RADAR)
Sat 11:31:20 PM -37.6201 145.1161 26° Northeast 199 229 12,500 1,569 Climbing Aus ATC (RADAR)
Sat 11:32:20 PM -37.5691 145.1474 26° Northeast 204 235 14,100 1,543 Climbing Aus ATC (RADAR)
Sat 11:33:05 PM -37.5304 145.1711 26° Northeast 209 241 15,200 1,425 Climbing Aus ATC (RADAR)
Sat 11:33:40 PM -37.4994 145.1900 26° Northeast 211 243 16,000 1,500 Climbing Aus ATC (RADAR)
Sat 11:34:25 PM -37.4587 145.2150 26° Northeast 218 251 17,200 1,543 Climbing Aus ATC (RADAR)
Sat 11:35:25 PM -37.4033 145.2494 26° Northeast 220 253 18,700 1,309 Climbing Aus ATC (RADAR)
Sat 11:36:15 PM -37.3569 145.2777 26° Northeast 226 260 19,600 1,096 Climbing Aus ATC (RADAR)
Sat 11:37:20 PM -37.2943 145.3158 26° Northeast 234 269 20,800 1,036 Climbing Aus ATC (RADAR)
Sat 11:38:05 PM -37.2502 145.3425 26° Northeast 238 274 21,500 975 Climbing Aus ATC (RADAR)
Sat 11:38:40 PM -37.2156 145.3634 26° Northeast 238 274 22,100 900 Climbing Aus ATC (RADAR)
Sat 11:39:25 PM -37.1706 145.3909 41° Northeast 242 278 22,700 840 Climbing Aus ATC (RADAR)
Sat 11:40:20 PM -37.1230 145.4423 41° Northeast 247 284 23,500 774 Climbing Aus ATC (RADAR)
Sat 11:41:29 PM -37.0608 145.5093 41° Northeast 256 295 24,300 651 Climbing Aus ATC (RADAR)
Sat 11:42:29 PM -37.0065 145.5691 41° Northeast 261 300 24,900 629 Climbing Aus ATC (RADAR)
Sat 11:43:14 PM -36.9652 145.6145 41° Northeast 265 305 25,400 675 Climbing Aus ATC (RADAR)
Sat 11:43:49 PM -36.9328 145.6504 41° Northeast 267 307 25,800 600 Climbing Aus ATC (RADAR)
Sat 11:44:24 PM -36.9001 145.6860 41° Northeast 269 310 26,100 514 Climbing Aus ATC (RADAR)
Sat 11:44:59 PM -36.8672 145.7221 44° Northeast 271 312 26,400 514 Climbing Aus ATC (RADAR)
Sat 11:45:34 PM -36.8357 145.7606 53° Northeast 276 318 26,700 494 Climbing Aus ATC (RADAR)
Sat 11:46:24 PM -36.7975 145.8249 52° Northeast 276 318 27,100 218 Climbing Aus ATC (RADAR)
Sat 11:47:24 PM -36.7484 145.9030 52° Northeast 290 334 27,100  Level Aus ATC (RADAR)
Sat 11:48:09 PM -36.7104 145.9629 52° Northeast 294 338 27,100  Level Aus ATC (RADAR)
Sat 11:48:44 PM -36.6809 146.0101 51° Northeast 297 342 27,100  Level Aus ATC (RADAR)
Sat 11:49:14 PM -36.6551 146.0499 52° Northeast 297 342 27,100  Level Aus ATC (RADAR)
Sat 11:49:54 PM -36.6215 146.1039 51° Northeast 295 339 27,100  Level Aus ATC (RADAR)
Sat 11:50:29 PM -36.5915 146.1506 51° Northeast 295 339 27,100  Level Aus ATC (RADAR)
Sat 11:51:44 PM -36.5274 146.2504 51° Northeast 295 339 27,100  Level Aus ATC (RADAR)
Sat 11:52:39 PM -36.4807 146.3233 51° Northeast 292 336 27,100  Level Aus ATC (RADAR)
Sat 11:53:28 PM -36.4379 146.3893 52° Northeast 294 338 27,100  Level Aus ATC (RADAR)
Sat 11:54:03 PM -36.4089 146.4358 51° Northeast 293 337 27,100  Level Aus ATC (RADAR)
Sat 11:54:58 PM -36.3619 146.5082 51° Northeast 292 336 27,100  Level Aus ATC (RADAR)
Sat 11:55:48 PM -36.3197 146.5740 51° Northeast 291 335 27,100  Level Aus ATC (RADAR)
Sat 11:57:13 PM -36.2477 146.6852 51° Northeast 289 333 27,100  Level Aus ATC (RADAR)
Sat 11:58:03 PM -36.2052 146.7507 50° Northeast 292 336 27,100  Level Aus ATC (RADAR)
Sat 11:58:53 PM -36.1618 146.8154 53° Northeast 293 337 27,100  Level Aus ATC (RADAR)
Sat 11:59:33 PM -36.1292 146.8690 51° Northeast 290 334 27,100  Level Aus ATC (RADAR)
Sun 12:00:18 AM -36.0905 146.9277 54° Northeast 292 336 27,100  Level Aus ATC (RADAR)
Sun 12:02:08 AM -36.0012 147.0777 55° Northeast 297 342 27,100  Level Aus ATC (RADAR)
Sun 12:03:03 AM -35.9577 147.1545 54° Northeast 295 339 27,100  Level Aus ATC (RADAR)
Sun 12:03:48 AM -35.9211 147.2162 55° Northeast 297 342 27,100  Level Aus ATC (RADAR)
Sun 12:04:28 AM -35.8891 147.2717 54° Northeast 297 342 27,100  Level Aus ATC (RADAR)
Sun 12:05:12 AM -35.8524 147.3340 54° Northeast 298 343 27,100  Level Aus ATC (RADAR)
Sun 12:06:47 AM -35.7757 147.4650 54° Northeast 295 339 27,100  Level Aus ATC (RADAR)
Sun 12:07:42 AM -35.7317 147.5399 54° Northeast 294 338 27,100  Level Aus ATC (RADAR)
Sun 12:08:17 AM -35.7038 147.5877 54° Northeast 293 337 27,100  Level Aus ATC (RADAR)
Sun 12:09:02 AM -35.6682 147.6489 54° Northeast 292 336 27,100  Level Aus ATC (RADAR)
Sun 12:09:37 AM -35.6399 147.6961 54° Northeast 292 336 27,100  Level Aus ATC (RADAR)
Sun 12:10:32 AM -35.5957 147.7705 54° Northeast 294 338 27,100  Level Aus ATC (RADAR)
Sun 12:11:42 AM -35.5399 147.8649 54° Northeast 291 335 27,100  Level Aus ATC (RADAR)
Sun 12:12:12 AM -35.5163 147.9054 54° Northeast 291 335 27,100  Level Aus ATC (RADAR)
Sun 12:13:07 AM -35.4719 147.9793 54° Northeast 293 337 27,100  Level Aus ATC (RADAR)
Sun 12:13:57 AM -35.4318 148.0471 53° Northeast 294 338 27,100  Level Aus ATC (RADAR)
Sun 12:14:27 AM -35.4072 148.0872 54° Northeast 293 337 27,100  Level Aus ATC (RADAR)
Sun 12:15:17 AM -35.3669 148.1552 53° Northeast 295 339 27,100  Level Aus ATC (RADAR)
Sun 12:16:17 AM -35.3177 148.2366 54° Northeast 294 338 27,100  Level Aus ATC (RADAR)
Sun 12:17:06 AM -35.2767 148.3052 54° Northeast 296 341 27,100  Level Aus ATC (RADAR)
Sun 12:18:06 AM -35.2273 148.3871 53° Northeast 298 343 27,100  Level Aus ATC (RADAR)
Sun 12:18:56 AM -35.1858 148.4555 54° Northeast 299 344 27,100  Level Aus ATC (RADAR)
Sun 12:19:31 AM -35.1572 148.5033 53° Northeast 298 343 27,100  Level Aus ATC (RADAR)
Sun 12:20:16 AM -35.1194 148.5645 54° Northeast 299 344 27,100  Level Aus ATC (RADAR)
Sun 12:21:16 AM -35.0698 148.6468 53° Northeast 298 343 27,100  Level Aus ATC (RADAR)
Sun 12:22:21 AM -35.0155 148.7360 53° Northeast 299 344 27,100  Level Aus ATC (RADAR)
Sun 12:23:21 AM -34.9650 148.8186 53° Northeast 297 342 27,100  Level Aus ATC (RADAR)
Sun 12:24:06 AM -34.9280 148.8789 53° Northeast 294 338 27,100  Level Aus ATC (RADAR)
Sun 12:24:41 AM -34.8992 148.9256 53° Northeast 293 337 27,100  Level Aus ATC (RADAR)
Sun 12:25:16 AM -34.8711 148.9716 53° Northeast 288 331 27,100  Level Aus ATC (RADAR)
Sun 12:25:51 AM -34.8433 149.0166 54° Northeast 283 326 27,100  Level Aus ATC (RADAR)
Sun 12:26:27 AM -34.8169 149.0602 54° Northeast 272 313 27,100  Level Aus ATC (RADAR)
Sun 12:27:16 AM -34.7806 149.1204 53° Northeast 260 299 27,100  Level Aus ATC (RADAR)
Sun 12:28:16 AM -34.7381 149.1899 54° Northeast 252 290 27,100  Level Aus ATC (RADAR)
Sun 12:29:01 AM -34.7070 149.2413 54° Northeast 250 288 27,100  Level Aus ATC (RADAR)
Sun 12:29:40 AM -34.6791 149.2875 54° Northeast 251 289 27,100  Level Aus ATC (RADAR)
Sun 12:30:26 AM -34.6480 149.3391 53° Northeast 251 289 27,100  Level Aus ATC (RADAR)
Sun 12:31:25 AM -34.6063 149.4075 54° Northeast 249 287 27,100  Level Aus ATC (RADAR)
Sun 12:32:40 AM -34.5549 149.4922 53° Northeast 245 282 27,100  Level Aus ATC (RADAR)
Sun 12:33:40 AM -34.5134 149.5596 54° Northeast 247 284 27,100  Level Aus ATC (RADAR)
Sun 12:34:25 AM -34.4827 149.6107 53° Northeast 247 284 27,100  Level Aus ATC (RADAR)
Sun 12:35:01 AM -34.4581 149.6499 54° Northeast 247 284 27,100  Level Aus ATC (RADAR)
Sun 12:35:45 AM -34.4272 149.7011 54° Northeast 247 284 27,100 -387 Level Aus ATC (RADAR)
Sun 12:37:05 AM -34.3731 149.7902 54° Northeast 240 276 26,300 -768 Descending Aus ATC (RADAR)
Sun 12:37:50 AM -34.3430 149.8403 53° Northeast 239 275 25,500 -975 Descending Aus ATC (RADAR)
Sun 12:38:25 AM -34.3196 149.8780 54° Northeast 237 273 25,000 -1,050 Descending Aus ATC (RADAR)
Sun 12:39:10 AM -34.2899 149.9269 54° Northeast 237 273 24,100 -1,725 Descending Aus ATC (RADAR)
Sun 12:39:45 AM -34.2635 149.9715 52° Northeast 273 314 22,700 -2,100 Descending Aus ATC (RADAR)
Sun 12:40:30 AM -34.2226 150.0354 53° Northeast 312 359 21,300 -1,760 Descending Aus ATC (RADAR)
Sun 12:41:00 AM -34.1961 150.0775 58° Northeast 308 354 20,500 -1,754 Descending Aus ATC (RADAR)
Sun 12:41:35 AM -34.1698 150.1292 79° East 302 348 19,400 -2,025 Descending Aus ATC (RADAR)
Sun 12:42:20 AM -34.1570 150.2053 75° East 293 337 17,800 -2,057 Descending Aus ATC (RADAR)
Sun 12:43:20 AM -34.1357 150.3024 76° East 283 326 15,800 -2,171 Descending Aus ATC (RADAR)
Sun 12:44:05 AM -34.1210 150.3716 75° East 275 316 14,000 -1,899 Descending Aus ATC (RADAR)
Sun 12:44:39 AM -34.1091 150.4248 75° East 270 311 13,300 -1,443 Descending Aus ATC (RADAR)
Sun 12:45:24 AM -34.0942 150.4925 76° East 269 310 12,100 -1,371 Descending Aus ATC (RADAR)
Sun 12:46:24 AM -34.0751 150.5817 76° East 264 304 10,900 -1,200 Descending Aus ATC (RADAR)
Sun 12:47:39 AM -34.0520 150.6896 75° East 255 293 9,400 -1,062 Descending Aus ATC (RADAR)
Sun 12:48:34 AM -34.0357 150.7643 75° East 243 280 8,600 -1,029 Descending Aus ATC (RADAR)
Sun 12:49:24 AM -34.0212 150.8308 75° East 237 273 7,600 -1,129 Descending Aus ATC (RADAR)
Sun 12:49:59 AM -34.0104 150.8788 75° East 245 282 7,000 -1,040 Descending Aus ATC (RADAR)
Sun 12:50:39 AM -33.9983 150.9326 85° East 241 277 6,300 -857 Descending Aus ATC (RADAR)
Sun 12:51:09 AM -33.9953 150.9732 140° Southeast 242 278 6,000 -277 Descending Aus ATC (RADAR)
Sun 12:51:44 AM -34.0221 151.0005 147° Southeast 217 250 6,000 -571 Level Aus ATC (RADAR)
Sun 12:52:54 AM -34.0821 151.0477 148° Southeast 219 252 5,000 -919 Descending Aus ATC (RADAR)
Sun 12:53:48 AM -34.1302 151.0837 134° Southeast 220 253 4,100 -923 Descending Aus ATC (RADAR)
Sun 12:54:38 AM -34.1638 151.1264 93° East 214 246 3,400 -918 Descending Aus ATC (RADAR)
Sun 12:55:13 AM -34.1657 151.1672 70° East 199 229 2,800 -918 Descending Aus ATC (RADAR)
Sun 12:56:03 AM -34.1523 151.2128 North 191 220 2,100 -457 Descending Aus ATC (RADAR)
Sun 12:56:58 AM -34.1085 151.2192 347° North 169 194 2,000 -100 Descending Aus ATC (RADAR)
Sun 12:58:03 AM -34.0604 151.2058 348° North 160 184 1,900 -365 Descending Aus ATC (RADAR)
Sun 12:58:53 AM -34.0273 151.1975 348° North 144 166 1,300 -632 Descending Aus ATC (RADAR)
Sun 12:59:38 AM -33.9992 151.1902 347° North 139 160 900 -655 Descending Aus ATC (RADAR)
Sun 01:00:43 AM -33.9619 151.1801 347° North 117 135 100 -738 Descending Aus ATC (RADAR)

Login

Don't have an account? Register now (free) for customized features, flight alerts, and more!